Time;durP1;ratioP1;P1;durP2;ratioP2;P2;SDS_P1;SDS_P2;PMS_P1;PMS_P2;Temp;Humidity;BMP_temperature;BMP_pressure;BME280_temperature;BME280_humidity;BME280_pressure;Samples;Min_cycle;Max_cycle;Signal;HPM_P1;HPM_P2
2022/01/25 00:24:24;;;;;;;31.20;10.07;;;-4.10;99.90;;;;;;4988983;28;20224;-82
2022/01/25 00:32:08;;;;;;;32.28;12.40;;;-4.10;99.90;;;;;;4985409;28;20030;-80
2022/01/25 00:34:34;;;;;;;33.70;11.98;;;-3.90;99.90;;;;;;4986807;28;20233;-79
2022/01/25 00:36:59;;;;;;;42.13;12.25;;;-3.70;99.90;;;;;;4985054;28;20047;-80
2022/01/25 00:39:25;;;;;;;43.13;13.68;;;-4.10;99.90;;;;;;4988864;28;20050;-79
2022/01/25 00:41:51;;;;;;;38.33;12.20;;;-2.90;99.90;;;;;;4970761;28;20037;-80
2022/01/25 00:44:16;;;;;;;34.80;12.38;;;-2.10;99.90;;;;;;4976914;28;20026;-82
2022/01/25 00:46:42;;;;;;;27.25;9.25;;;-3.80;99.90;;;;;;4979825;28;20037;-83
2022/01/25 00:49:09;;;;;;;32.30;10.75;;;-1.90;99.90;;;;;;4978113;28;20018;-82
2022/01/25 00:54:17;;;;;;;34.90;10.38;;;-2.00;99.90;;;;;;4997914;28;20074;-81
2022/01/25 00:56:47;;;;;;;32.35;11.52;;;-3.70;99.90;;;;;;4982362;28;20113;-79
2022/01/25 00:59:36;;;;;;;28.95;9.93;;;-4.00;99.90;;;;;;4996546;28;20034;-83
2022/01/25 01:02:07;;;;;;;37.45;10.30;;;-4.00;99.90;;;;;;4977705;28;20019;-80
2022/01/25 01:04:33;;;;;;;41.85;14.02;;;-3.70;99.90;;;;;;4995634;28;20034;-81
2022/01/25 01:07:05;;;;;;;46.25;13.38;;;-3.10;99.90;;;;;;4978095;28;20157;-78
2022/01/25 01:09:33;;;;;;;49.25;15.43;;;-2.90;99.90;;;;;;4982571;28;20022;-80
2022/01/25 01:12:05;;;;;;;54.22;15.40;;;-2.00;99.90;;;;;;4993523;28;20495;-80
2022/01/25 01:15:00;;;;;;;34.00;13.45;;;-1.80;99.90;;;;;;4976583;28;20041;-93
2022/01/25 01:31:07;;;;;;;39.08;10.20;;;-3.80;99.90;;;;;;4993891;28;20100;-83
2022/01/25 01:34:41;;;;;;;41.50;12.75;;;-3.80;99.90;;;;;;4976247;28;20686;-80
2022/01/25 01:47:47;;;;;;;40.78;11.30;;;-1.90;99.90;;;;;;4945476;29;20043;-79
2022/01/25 01:50:25;;;;;;;44.92;14.35;;;-3.80;99.90;;;;;;4982714;28;20069;-78
2022/01/25 01:52:51;;;;;;;41.40;12.25;;;-2.40;99.90;;;;;;4977561;28;20317;-78
2022/01/25 01:55:18;;;;;;;38.38;13.55;;;-2.40;99.90;;;;;;4974088;28;20026;-78
2022/01/25 01:57:46;;;;;;;36.03;13.23;;;-3.50;99.90;;;;;;4974521;28;20112;-79
2022/01/25 02:00:13;;;;;;;48.58;15.77;;;-3.80;99.90;;;;;;4974596;28;20088;-78
2022/01/25 02:02:39;;;;;;;50.10;13.68;;;-3.90;99.90;;;;;;4992967;28;20101;-79
2022/01/25 02:05:06;;;;;;;37.63;13.32;;;-1.50;99.90;;;;;;4976235;28;20430;-78
2022/01/25 02:07:32;;;;;;;36.33;11.73;;;-3.90;99.90;;;;;;4993517;28;20065;-78
2022/01/25 02:09:57;;;;;;;37.75;12.38;;;-1.90;99.90;;;;;;4975195;28;20022;-78
2022/01/25 02:12:23;;;;;;;41.28;13.48;;;-2.10;99.90;;;;;;4975729;28;20018;-81
2022/01/25 02:14:49;;;;;;;36.80;12.88;;;-3.50;99.90;;;;;;4993478;28;20026;-79
2022/01/25 02:17:52;;;;;;;46.97;14.13;;;-4.10;99.90;;;;;;4993293;28;20503;-78
2022/01/25 02:23:22;;;;;;;34.70;12.35;;;-4.00;99.90;;;;;;4992858;28;20089;-79
2022/01/25 02:25:50;;;;;;;40.97;12.82;;;-4.00;99.90;;;;;;4975303;28;20553;-80
2022/01/25 02:28:18;;;;;;;35.80;12.83;;;-3.90;99.90;;;;;;4975781;28;20026;-78
2022/01/25 02:30:44;;;;;;;41.63;14.38;;;-4.00;99.90;;;;;;4993675;28;20026;-78
2022/01/25 02:33:10;;;;;;;46.42;16.05;;;-2.90;99.90;;;;;;4974513;28;20034;-78
2022/01/25 02:35:36;;;;;;;45.72;11.88;;;-2.80;99.90;;;;;;4974579;28;20131;-80
2022/01/25 02:38:04;;;;;;;41.67;14.07;;;-3.80;99.90;;;;;;4991696;28;20524;-79
2022/01/25 02:40:30;;;;;;;47.55;14.68;;;-3.80;99.90;;;;;;4974188;28;20050;-78
2022/01/25 02:42:56;;;;;;;49.25;14.18;;;-2.60;99.90;;;;;;4991094;28;20105;-80
2022/01/25 02:45:24;;;;;;;35.90;14.73;;;-3.80;99.90;;;;;;4990849;28;20029;-79
2022/01/25 02:50:34;;;;;;;42.75;12.98;;;-2.20;99.90;;;;;;4990920;28;20033;-78
2022/01/25 02:53:00;;;;;;;41.08;15.02;;;-4.00;99.90;;;;;;4991133;28;20026;-78
2022/01/25 02:55:25;;;;;;;39.38;14.27;;;-4.10;99.90;;;;;;4990521;28;20050;-79
2022/01/25 02:57:51;;;;;;;49.00;15.10;;;-4.00;99.90;;;;;;4972920;28;20121;-79
2022/01/25 03:00:17;;;;;;;37.00;14.00;;;-1.90;99.90;;;;;;4974058;28;20053;-78
2022/01/25 03:02:43;;;;;;;48.22;13.88;;;-3.90;99.90;;;;;;4990315;28;20499;-79
2022/01/25 03:05:09;;;;;;;33.67;14.10;;;-3.90;99.90;;;;;;4973141;28;20028;-78
2022/01/25 03:07:38;;;;;;;45.40;14.30;;;-2.10;99.90;;;;;;4991447;28;20045;-78
2022/01/25 03:10:05;;;;;;;44.97;13.00;;;-2.00;99.90;;;;;;4973971;28;20034;-78
2022/01/25 03:12:39;;;;;;;38.85;12.52;;;-3.90;99.90;;;;;;4973943;28;20019;-78
2022/01/25 03:15:25;;;;;;;44.58;12.43;;;-1.50;99.90;;;;;;4974108;28;20035;-78
2022/01/25 03:17:58;;;;;;;33.05;12.27;;;-3.90;99.90;;;;;;4974209;28;20129;-78
2022/01/25 03:20:46;;;;;;;46.97;12.07;;;-2.70;99.90;;;;;;4974560;28;20046;-79
2022/01/25 03:23:21;;;;;;;31.63;11.23;;;-4.20;99.90;;;;;;4974525;28;20038;-79
2022/01/25 03:25:49;;;;;;;43.33;13.73;;;-4.20;99.90;;;;;;4992449;28;20014;-79
2022/01/25 03:28:19;;;;;;;41.00;11.45;;;-4.10;99.90;;;;;;4991871;28;20058;-79
2022/01/25 03:30:46;;;;;;;43.45;13.40;;;-3.70;99.90;;;;;;4992097;28;20057;-78
2022/01/25 03:33:12;;;;;;;37.13;12.75;;;-4.30;99.90;;;;;;4991780;28;20034;-78
2022/01/25 03:35:39;;;;;;;35.28;10.77;;;-1.80;99.90;;;;;;4991543;28;20537;-78
2022/01/25 03:38:05;;;;;;;35.80;12.52;;;-2.30;99.90;;;;;;4991487;28;20073;-78
2022/01/25 03:40:31;;;;;;;39.45;12.73;;;-2.40;99.90;;;;;;4992051;28;20026;-81
2022/01/25 03:42:59;;;;;;;48.03;12.23;;;-4.50;99.90;;;;;;4991671;28;20033;-78
2022/01/25 03:45:31;;;;;;;36.88;12.43;;;-4.30;99.90;;;;;;4973873;28;20031;-78
2022/01/25 03:50:40;;;;;;;35.40;12.18;;;-4.50;99.90;;;;;;4990892;28;20497;-80
2022/01/25 03:53:07;;;;;;;36.13;13.00;;;-4.60;99.90;;;;;;4991218;28;20026;-79
2022/01/25 03:55:33;;;;;;;33.13;11.02;;;-4.70;99.90;;;;;;4973670;28;20546;-79
2022/01/25 03:57:58;;;;;;;36.88;12.10;;;-4.60;99.90;;;;;;4991008;28;20042;-78
2022/01/25 04:00:24;;;;;;;37.05;12.10;;;-2.10;99.90;;;;;;4990739;28;20105;-77
2022/01/25 04:03:03;;;;;;;35.05;10.43;;;-4.40;99.90;;;;;;4991090;28;20030;-78
2022/01/25 04:05:49;;;;;;;47.97;13.70;;;-2.70;99.90;;;;;;4991145;28;20026;-78
2022/01/25 04:08:20;;;;;;;27.52;8.90;;;-4.80;99.90;;;;;;4949014;29;20024;-78
2022/01/25 04:10:47;;;;;;;32.65;10.48;;;-4.90;99.90;;;;;;4948957;29;20035;-79
2022/01/25 04:13:13;;;;;;;30.00;9.23;;;-5.20;99.90;;;;;;4949228;29;20259;-78
2022/01/25 04:15:45;;;;;;;32.85;12.07;;;-4.00;99.90;;;;;;4949291;29;20419;-78
2022/01/25 04:20:57;;;;;;;29.60;10.77;;;-4.00;99.90;;;;;;4949094;29;20035;-78
2022/01/25 04:26:07;;;;;;;28.00;8.98;;;-3.60;99.90;;;;;;4948788;29;20038;-78
2022/01/25 04:28:32;;;;;;;28.75;8.98;;;-5.30;99.90;;;;;;4948522;29;20043;-78
2022/01/25 04:30:58;;;;;;;39.42;10.45;;;-5.40;99.90;;;;;;4948504;29;20028;-79
2022/01/25 04:33:27;;;;;;;30.92;9.40;;;-5.50;99.90;;;;;;4948261;29;20346;-78
2022/01/25 04:49:22;;;;;;;29.02;9.13;;;-5.20;99.90;;;;;;4970838;28;20161;-79
2022/01/25 04:59:47;;;;;;;30.35;10.65;;;-5.50;99.90;;;;;;4970446;28;20027;-80
2022/01/25 05:02:20;;;;;;;37.20;12.95;;;-5.50;99.90;;;;;;4968882;28;20031;-78
2022/01/25 05:04:55;;;;;;;29.25;10.10;;;-5.20;99.90;;;;;;4970466;28;20456;-77
2022/01/25 05:10:00;;;;;;;37.10;12.55;;;-4.90;99.90;;;;;;4970529;28;20163;-78
2022/01/25 05:12:40;;;;;;;36.72;13.90;;;-4.80;99.90;;;;;;4970659;28;20138;-79
2022/01/25 05:15:21;;;;;;;33.60;10.45;;;-4.60;99.90;;;;;;4969287;28;20049;-81
2022/01/25 05:18:00;;;;;;;38.42;10.23;;;-4.60;99.90;;;;;;4970227;28;20034;-78
2022/01/25 05:23:10;;;;;;;30.92;11.45;;;-2.80;99.90;;;;;;4970579;28;20042;-78
2022/01/25 05:25:36;;;;;;;28.08;9.50;;;-4.10;99.90;;;;;;4968911;28;20031;-78
2022/01/25 05:28:02;;;;;;;24.38;9.00;;;-5.30;99.90;;;;;;4970337;28;20035;-79
2022/01/25 05:30:27;;;;;;;30.98;10.35;;;-5.40;99.90;;;;;;4972419;28;20538;-78
2022/01/25 05:32:53;;;;;;;30.08;10.70;;;-5.50;99.90;;;;;;4973932;28;20039;-78
2022/01/25 05:35:19;;;;;;;33.75;11.57;;;-4.50;99.90;;;;;;4974098;28;20027;-79
2022/01/25 05:37:44;;;;;;;39.30;11.07;;;-5.40;99.90;;;;;;4986042;28;20046;-78
2022/01/25 05:40:16;;;;;;;33.33;10.13;;;-3.90;99.90;;;;;;4993575;28;20247;-79
2022/01/25 05:43:57;;;;;;;34.92;9.75;;;-5.40;99.90;;;;;;4975816;28;20033;-78
2022/01/25 05:48:11;;;;;;;39.70;9.65;;;-5.40;99.90;;;;;;4992940;28;20038;-78
2022/01/25 05:50:37;;;;;;;28.27;9.57;;;-5.50;99.90;;;;;;4993177;28;20037;-78
2022/01/25 05:53:03;;;;;;;24.92;8.30;;;-5.50;99.90;;;;;;4993362;28;20117;-78
2022/01/25 05:55:29;;;;;;;30.58;11.05;;;-5.20;99.90;;;;;;4992946;28;20072;-80
2022/01/25 05:57:54;;;;;;;37.40;10.00;;;-5.60;99.90;;;;;;4975122;28;20446;-78
2022/01/25 06:00:20;;;;;;;37.22;11.15;;;-5.60;99.90;;;;;;4975406;28;20495;-78
2022/01/25 06:02:47;;;;;;;34.83;9.52;;;-5.40;99.90;;;;;;4974935;28;20038;-78
2022/01/25 06:05:13;;;;;;;39.67;10.80;;;-5.20;99.90;;;;;;4980640;28;20109;-78
2022/01/25 06:07:39;;;;;;;41.53;13.80;;;-5.00;99.90;;;;;;4993394;28;20078;-78
2022/01/25 06:10:06;;;;;;;36.08;11.57;;;-5.10;99.90;;;;;;4992742;28;20676;-78
2022/01/25 06:12:32;;;;;;;33.05;9.55;;;-5.20;99.90;;;;;;4977935;28;20387;-78
2022/01/25 06:14:57;;;;;;;28.40;9.88;;;-4.40;99.90;;;;;;4992830;28;20026;-78
2022/01/25 06:17:23;;;;;;;32.33;11.90;;;-5.30;99.90;;;;;;4975347;28;20088;-78
2022/01/25 06:19:49;;;;;;;34.17;10.85;;;-5.40;99.90;;;;;;4993870;28;20022;-78
2022/01/25 06:22:15;;;;;;;22.10;8.95;;;-5.50;99.90;;;;;;4977744;28;20423;-88
2022/01/25 06:24:41;;;;;;;49.35;17.23;;;-5.50;99.90;;;;;;4988622;28;20050;-80
2022/01/25 06:27:07;;;;;;;70.03;24.48;;;-5.60;99.90;;;;;;4974751;28;20029;-85
2022/01/25 06:29:33;;;;;;;55.10;17.48;;;-5.60;99.90;;;;;;4971093;28;20395;-80
2022/01/25 06:32:00;;;;;;;49.63;17.70;;;-5.40;99.90;;;;;;4970255;28;20066;-80
2022/01/25 06:34:25;;;;;;;60.40;18.25;;;-5.50;99.90;;;;;;4971140;28;20196;-86
2022/01/25 06:36:51;;;;;;;49.95;16.75;;;-5.60;99.90;;;;;;4989463;28;20369;-83
2022/01/25 06:39:17;;;;;;;50.17;14.80;;;-5.50;99.90;;;;;;4976191;28;20463;-80
2022/01/25 06:41:43;;;;;;;43.00;14.48;;;-5.30;99.90;;;;;;4988637;28;20089;-80
2022/01/25 06:44:09;;;;;;;44.47;14.73;;;-5.40;99.90;;;;;;4971130;28;20023;-80
2022/01/25 06:46:35;;;;;;;38.20;12.52;;;-3.30;99.90;;;;;;4987679;28;20355;-87
2022/01/25 06:49:01;;;;;;;37.85;11.30;;;-3.00;99.90;;;;;;4987922;28;20034;-83
2022/01/25 06:51:28;;;;;;;34.45;11.15;;;-5.50;99.90;;;;;;4987787;28;20033;-81
2022/01/25 06:53:54;;;;;;;33.28;10.07;;;-5.40;99.90;;;;;;4987818;28;20033;-85
2022/01/25 06:56:20;;;;;;;33.58;9.65;;;-5.50;99.90;;;;;;5002488;28;20030;-90
2022/01/25 06:58:46;;;;;;;31.02;9.45;;;-5.00;99.90;;;;;;4970264;28;20029;-79
2022/01/25 07:01:11;;;;;;;39.03;10.98;;;-5.50;99.90;;;;;;4970145;28;20022;-78
2022/01/25 07:03:37;;;;;;;33.30;8.77;;;-5.40;99.90;;;;;;4987700;28;20283;-79
2022/01/25 07:06:03;;;;;;;28.33;9.73;;;-5.30;99.90;;;;;;4970849;28;20121;-79
2022/01/25 07:08:28;;;;;;;36.33;11.10;;;-5.30;99.90;;;;;;4970352;28;20026;-81
2022/01/25 07:10:54;;;;;;;37.20;11.60;;;-5.30;99.90;;;;;;4987569;28;20017;-86
2022/01/25 07:13:20;;;;;;;27.52;8.35;;;-5.30;99.90;;;;;;4986263;28;20026;-84
2022/01/25 07:15:46;;;;;;;33.15;10.43;;;-3.60;99.90;;;;;;4969659;28;20380;-79
2022/01/25 07:18:12;;;;;;;31.80;9.43;;;-5.20;99.90;;;;;;4969254;28;20434;-82
2022/01/25 07:20:37;;;;;;;29.08;9.85;;;-5.30;99.90;;;;;;4969127;28;20057;-88
2022/01/25 07:23:03;;;;;;;21.60;8.30;;;-5.20;99.90;;;;;;4971252;28;20026;-80
2022/01/25 07:25:29;;;;;;;40.53;10.27;;;-5.20;99.90;;;;;;4989817;28;20490;-83
2022/01/25 07:27:54;;;;;;;30.23;11.60;;;-5.30;99.90;;;;;;4970757;28;20549;-88
2022/01/25 07:30:20;;;;;;;23.35;9.02;;;-5.20;99.90;;;;;;4972164;28;20026;-88
2022/01/25 07:32:46;;;;;;;24.10;9.32;;;-3.30;99.90;;;;;;4971790;28;20387;-88
2022/01/25 07:35:11;;;;;;;29.60;8.52;;;-5.20;99.90;;;;;;4989347;28;20105;-81
2022/01/25 07:37:37;;;;;;;34.22;9.57;;;-5.20;99.90;;;;;;4987951;28;20418;-81
2022/01/25 07:40:04;;;;;;;31.25;9.48;;;-5.20;99.90;;;;;;4975495;28;20018;-84
2022/01/25 07:42:33;;;;;;;24.92;9.68;;;-5.20;99.90;;;;;;4989197;28;20033;-82
2022/01/25 07:44:58;;;;;;;;;;;-5.20;99.90;;;;;;4972873;28;20090;-79
2022/01/25 07:47:24;;;;;;;26.10;8.20;;;-5.10;99.90;;;;;;4970707;28;20412;-82
2022/01/25 07:49:50;;;;;;;30.50;9.70;;;-5.10;99.90;;;;;;4971910;28;20496;-87
2022/01/25 07:52:15;;;;;;;29.25;10.20;;;-5.10;99.90;;;;;;4971839;28;20034;-86
2022/01/25 07:54:42;;;;;;;28.85;10.23;;;-5.00;99.90;;;;;;4989611;28;20018;-83
2022/01/25 07:57:09;;;;;;;22.50;9.15;;;-2.60;99.90;;;;;;4974291;28;20123;-83
2022/01/25 07:59:34;;;;;;;22.25;7.20;;;-1.70;99.90;;;;;;4973404;28;20022;-81
2022/01/25 08:02:00;;;;;;;36.92;11.30;;;-2.30;99.90;;;;;;4972810;28;20495;-87
2022/01/25 08:04:27;;;;;;;28.13;9.93;;;-4.80;99.90;;;;;;4972638;28;20364;-81
2022/01/25 08:06:52;;;;;;;36.28;9.88;;;-4.60;99.90;;;;;;4971882;28;20203;-83
2022/01/25 08:09:19;;;;;;;28.75;10.43;;;-3.20;99.90;;;;;;4974458;28;20225;-80
2022/01/25 08:11:45;;;;;;;37.10;11.40;;;-4.30;99.90;;;;;;4973744;28;20026;-81
2022/01/25 08:14:12;;;;;;;35.70;11.55;;;-3.20;99.90;;;;;;4972134;28;20439;-83
2022/01/25 08:16:49;;;;;;;29.13;10.73;;;-3.90;99.90;;;;;;4974648;28;20106;-78
2022/01/25 08:19:16;;;;;;;32.53;11.15;;;-3.90;99.90;;;;;;4988803;28;20032;-79
2022/01/25 08:21:41;;;;;;;24.52;9.85;;;-2.60;99.90;;;;;;4989695;28;20101;-83
2022/01/25 08:24:09;;;;;;;29.08;10.38;;;-3.00;99.90;;;;;;4975600;28;20109;-82
2022/01/25 08:26:35;;;;;;;32.15;11.48;;;-1.50;99.90;;;;;;4972332;28;20027;-81
2022/01/25 08:29:01;;;;;;;30.13;10.70;;;-1.90;99.90;;;;;;4973106;28;20022;-82
2022/01/25 08:31:27;;;;;;;33.90;12.15;;;-3.80;99.90;;;;;;4974941;28;20668;-87
2022/01/25 08:33:53;;;;;;;29.08;9.15;;;-3.70;99.90;;;;;;4991417;28;20117;-80
2022/01/25 08:36:19;;;;;;;31.40;12.35;;;-2.40;99.90;;;;;;4974680;28;20086;-79
2022/01/25 08:38:45;;;;;;;34.17;12.15;;;-1.50;99.90;;;;;;4977727;28;20030;-78
2022/01/25 08:41:13;;;;;;;32.40;11.55;;;-2.10;99.90;;;;;;4982475;28;20434;-78
2022/01/25 08:43:39;;;;;;;25.90;10.85;;;-1.50;99.90;;;;;;4978612;28;20058;-78
2022/01/25 08:46:05;;;;;;;32.17;10.73;;;-2.20;99.90;;;;;;4980511;28;20420;-81
2022/01/25 08:48:31;;;;;;;31.77;12.77;;;-3.20;99.90;;;;;;4980775;28;20023;-79
2022/01/25 08:50:58;;;;;;;35.58;11.93;;;-3.00;99.90;;;;;;4978844;28;20038;-75
2022/01/25 08:53:24;;;;;;;25.80;11.30;;;-2.40;99.90;;;;;;4996922;28;20046;-81
2022/01/25 08:55:50;;;;;;;32.97;12.25;;;-2.90;99.90;;;;;;4978909;28;20018;-81
2022/01/25 08:58:15;;;;;;;29.63;12.52;;;-1.60;99.90;;;;;;4981363;28;20030;-80
2022/01/25 09:00:41;;;;;;;39.30;12.98;;;-1.60;99.90;;;;;;4978371;28;20033;-81
2022/01/25 09:03:07;;;;;;;36.25;11.98;;;-1.40;99.90;;;;;;4980844;28;20189;-82
2022/01/25 09:05:33;;;;;;;38.38;12.55;;;-2.00;99.90;;;;;;4983598;28;20023;-80
2022/01/25 09:08:06;;;;;;;34.65;14.75;;;-2.30;99.90;;;;;;4980430;28;20510;-80
2022/01/25 09:10:36;;;;;;;42.85;15.20;;;-2.10;99.90;;;;;;4984226;28;20049;-78
2022/01/25 09:13:13;;;;;;;42.08;15.48;;;-2.00;99.90;;;;;;5000980;28;20019;-78
2022/01/25 09:15:41;;;;;;;40.15;15.27;;;-1.30;99.90;;;;;;4982506;28;20015;-78
2022/01/25 09:18:07;;;;;;;40.40;13.73;;;-1.80;99.90;;;;;;4981873;28;20034;-78
2022/01/25 09:20:35;;;;;;;43.88;14.75;;;-1.80;99.90;;;;;;4984860;28;20097;-77
2022/01/25 09:23:01;;;;;;;45.38;15.30;;;-1.30;99.90;;;;;;4982077;28;20065;-76
2022/01/25 09:25:36;;;;;;;46.95;17.27;;;-1.60;99.90;;;;;;5003718;28;20080;-77
2022/01/25 09:28:02;;;;;;;41.45;15.50;;;-2.60;99.90;;;;;;5002827;28;20086;-78
2022/01/25 09:30:29;;;;;;;42.10;15.50;;;-1.40;99.90;;;;;;4984580;28;20118;-78
2022/01/25 09:32:54;;;;;;;53.05;16.83;;;-1.10;99.90;;;;;;5006200;28;20069;-78
2022/01/25 09:35:23;;;;;;;50.17;15.35;;;-1.10;99.90;;;;;;5002901;28;20022;-78
2022/01/25 09:37:51;;;;;;;41.60;14.27;;;-1.00;99.90;;;;;;5002856;28;20551;-74
2022/01/25 09:40:21;;;;;;;34.60;12.32;;;-0.90;99.90;;;;;;5001529;28;20033;-78
2022/01/25 09:42:51;;;;;;;40.55;16.52;;;-0.90;99.90;;;;;;4983481;28;20119;-78
2022/01/25 09:45:18;;;;;;;37.85;15.10;;;-0.60;99.90;;;;;;5001141;28;20030;-78
2022/01/25 09:47:45;;;;;;;44.35;14.07;;;-0.70;99.90;;;;;;4982980;28;20022;-78
2022/01/25 09:50:11;;;;;;;40.35;12.48;;;0.40;99.90;;;;;;4999916;28;20022;-79
2022/01/25 09:52:40;;;;;;;39.30;14.13;;;-0.60;99.90;;;;;;4983428;28;20023;-78
2022/01/25 09:55:10;;;;;;;41.58;14.65;;;-0.50;99.90;;;;;;4999942;28;20054;-78
2022/01/25 09:57:36;;;;;;;43.22;15.13;;;0.90;99.90;;;;;;4997795;28;20038;-78
2022/01/25 10:00:04;;;;;;;44.17;16.95;;;-0.40;99.90;;;;;;4981696;28;20147;-78
2022/01/25 10:03:01;;;;;;;43.03;14.45;;;-0.20;99.90;;;;;;4999280;28;20034;-78
2022/01/25 10:05:36;;;;;;;31.95;12.77;;;-0.10;99.90;;;;;;4999339;28;20030;-78
2022/01/25 10:08:09;;;;;;;36.28;15.13;;;0.70;99.90;;;;;;4981745;28;20053;-78
2022/01/25 10:11:00;;;;;;;34.45;13.98;;;0.00;99.90;;;;;;5000745;28;20026;-78
2022/01/25 10:13:27;;;;;;;33.55;12.10;;;0.10;99.90;;;;;;4995344;28;20105;-77
2022/01/25 10:16:03;;;;;;;34.10;11.75;;;0.20;99.90;;;;;;4995916;28;20026;-78
2022/01/25 10:18:49;;;;;;;33.10;12.98;;;0.20;99.90;;;;;;4998900;28;20042;-78
2022/01/25 10:21:21;;;;;;;37.38;14.32;;;0.20;99.90;;;;;;4982981;28;20033;-78
2022/01/25 10:24:09;;;;;;;39.53;14.40;;;0.30;99.90;;;;;;4980378;28;20026;-79
2022/01/25 10:26:39;;;;;;;33.85;13.13;;;0.50;99.90;;;;;;4978011;28;20018;-78
2022/01/25 10:29:10;;;;;;;35.65;14.82;;;0.60;99.90;;;;;;4996092;28;20440;-78
2022/01/25 10:31:50;;;;;;;37.92;13.73;;;0.60;99.90;;;;;;4978419;28;20363;-79
2022/01/25 10:34:22;;;;;;;33.35;13.50;;;0.70;99.90;;;;;;4978413;28;20441;-79
2022/01/25 10:36:49;;;;;;;43.42;15.05;;;0.80;99.90;;;;;;4997027;28;20030;-77
2022/01/25 10:39:26;;;;;;;30.00;12.70;;;0.80;99.90;;;;;;4998558;28;20022;-78
2022/01/25 10:42:23;;;;;;;26.65;11.35;;;0.80;99.90;;;;;;4978689;28;20387;-78
2022/01/25 10:44:58;;;;;;;34.30;12.70;;;0.80;99.90;;;;;;4990107;28;20099;-78
2022/01/25 10:47:42;;;;;;;32.15;13.50;;;0.90;99.90;;;;;;4979341;28;20472;-78
2022/01/25 10:50:13;;;;;;;28.48;11.43;;;0.90;99.90;;;;;;4980614;28;20030;-78
2022/01/25 10:52:40;;;;;;;36.97;11.82;;;1.00;99.90;;;;;;4978194;28;20030;-77
2022/01/25 10:55:07;;;;;;;38.17;13.80;;;1.10;99.90;;;;;;4978892;28;20041;-78
2022/01/25 10:57:37;;;;;;;31.83;13.27;;;1.20;99.90;;;;;;4979376;28;20370;-78
2022/01/25 11:00:11;;;;;;;35.95;12.05;;;1.20;99.90;;;;;;4978254;28;20034;-77
2022/01/25 11:02:51;;;;;;;38.85;12.90;;;1.30;99.90;;;;;;4977278;28;20372;-77
2022/01/25 11:05:18;;;;;;;34.50;12.75;;;1.50;99.90;;;;;;4995016;28;20018;-78
2022/01/25 11:07:48;;;;;;;34.35;13.10;;;1.60;99.90;;;;;;4994143;28;20109;-78
2022/01/25 11:10:17;;;;;;;28.67;13.63;;;1.70;99.90;;;;;;4993449;28;20471;-77
2022/01/25 11:12:58;;;;;;;34.65;14.20;;;1.80;99.90;;;;;;4993116;28;20794;-77
2022/01/25 11:15:24;;;;;;;31.35;12.32;;;1.80;99.90;;;;;;4994216;28;20034;-77
2022/01/25 11:17:53;;;;;;;29.85;11.30;;;2.00;99.90;;;;;;4994497;28;20039;-77
2022/01/25 11:20:21;;;;;;;38.47;13.13;;;2.00;99.90;;;;;;4991328;28;20035;-77
2022/01/25 11:22:47;;;;;;;28.00;12.23;;;2.10;99.90;;;;;;4976141;28;20910;-78
2022/01/25 11:25:17;;;;;;;29.83;11.95;;;2.20;99.90;;;;;;4994198;28;20026;-77
2022/01/25 11:27:45;;;;;;;34.83;11.88;;;2.30;99.90;;;;;;4974373;28;20052;-78
2022/01/25 11:30:17;;;;;;;28.10;11.65;;;2.50;99.90;;;;;;4992983;28;20105;-78
2022/01/25 11:32:46;;;;;;;30.40;11.95;;;2.70;99.90;;;;;;4993235;28;20022;-78
2022/01/25 11:35:15;;;;;;;27.43;11.70;;;2.80;99.90;;;;;;4976078;28;20030;-78
2022/01/25 11:37:43;;;;;;;44.40;17.23;;;3.10;99.90;;;;;;4993807;28;20398;-78
2022/01/25 11:40:30;;;;;;;40.15;15.45;;;3.30;99.90;;;;;;4974675;28;20034;-78
2022/01/25 11:43:02;;;;;;;35.53;13.30;;;3.40;99.90;;;;;;4977043;28;20050;-76
2022/01/25 11:45:32;;;;;;;33.38;12.88;;;3.50;99.90;;;;;;4993284;28;20360;-76
2022/01/25 11:47:58;;;;;;;33.75;11.98;;;3.60;99.90;;;;;;4971238;28;20026;-78
2022/01/25 11:50:28;;;;;;;29.40;12.38;;;3.60;99.90;;;;;;4991468;28;20391;-78
2022/01/25 11:52:56;;;;;;;33.38;11.45;;;3.70;99.90;;;;;;4977099;28;20058;-79
2022/01/25 11:55:32;;;;;;;37.78;12.77;;;3.80;99.90;;;;;;4989934;28;20035;-80
2022/01/25 11:58:10;;;;;;;36.97;13.10;;;3.90;99.90;;;;;;4976687;28;20050;-78
2022/01/25 12:00:51;;;;;;;32.65;12.82;;;3.90;99.90;;;;;;4991217;28;20530;-77
2022/01/25 12:03:25;;;;;;;32.50;12.20;;;3.90;99.90;;;;;;4992595;28;20030;-77
2022/01/25 12:06:04;;;;;;;33.83;12.95;;;3.90;99.90;;;;;;4972933;28;20495;-78
2022/01/25 12:08:52;;;;;;;32.35;11.75;;;4.10;99.90;;;;;;4991695;28;20023;-79
2022/01/25 12:11:59;;;;;;;37.40;12.05;;;4.30;99.90;;;;;;4982055;28;20026;-78
2022/01/25 12:14:33;;;;;;;29.02;11.02;;;4.30;99.90;;;;;;4972885;28;20042;-77
2022/01/25 12:17:02;;;;;;;26.73;11.85;;;4.40;99.90;;;;;;4996752;28;20041;-78
2022/01/25 12:19:30;;;;;;;33.95;13.30;;;4.40;99.90;;;;;;4977781;28;20037;-77
2022/01/25 12:22:06;;;;;;;26.27;9.85;;;4.60;99.90;;;;;;4991683;28;20034;-77
2022/01/25 12:25:02;;;;;;;29.27;10.27;;;4.60;99.90;;;;;;4991748;28;20459;-76
2022/01/25 12:27:46;;;;;;;28.90;12.55;;;4.70;99.90;;;;;;4993897;28;20022;-77
2022/01/25 12:30:17;;;;;;;31.67;11.38;;;4.80;99.90;;;;;;4993191;28;20030;-77
2022/01/25 12:32:45;;;;;;;28.98;10.82;;;5.00;99.90;;;;;;4974477;28;20030;-76
2022/01/25 12:35:19;;;;;;;26.88;10.77;;;5.10;99.90;;;;;;4993261;28;20101;-77
2022/01/25 12:37:54;;;;;;;27.77;9.95;;;5.10;99.90;;;;;;4993258;28;20423;-77
2022/01/25 12:40:25;;;;;;;24.23;9.50;;;5.10;99.90;;;;;;4980300;28;20015;-77
2022/01/25 12:43:19;;;;;;;27.98;10.50;;;5.10;99.90;;;;;;4997046;28;20026;-78
2022/01/25 12:45:46;;;;;;;25.73;10.43;;;5.20;99.90;;;;;;4950273;28;20043;-79
2022/01/25 12:48:19;;;;;;;28.60;11.02;;;5.20;99.90;;;;;;4977884;28;20455;-78
2022/01/25 12:50:48;;;;;;;30.25;11.68;;;5.30;99.90;;;;;;4972454;28;20050;-78
2022/01/25 12:53:19;;;;;;;32.00;10.43;;;5.40;99.90;;;;;;4995405;28;20034;-78
2022/01/25 12:55:47;;;;;;;28.98;10.70;;;5.40;99.90;;;;;;4972831;28;20073;-81
2022/01/25 12:58:13;;;;;;;24.65;10.50;;;5.50;99.90;;;;;;4976640;28;20042;-76
2022/01/25 13:00:48;;;;;;;20.42;9.63;;;5.50;99.90;;;;;;4992943;28;20045;-79
2022/01/25 13:03:32;;;;;;;23.20;8.98;;;5.50;99.90;;;;;;4975301;28;20035;-78
2022/01/25 13:06:08;;;;;;;25.60;10.60;;;5.60;99.90;;;;;;4990174;28;20015;-80
2022/01/25 13:08:53;;;;;;;21.48;8.75;;;5.70;99.90;;;;;;4972053;28;20029;-77
2022/01/25 13:12:13;;;;;;;23.48;9.00;;;6.10;99.90;;;;;;4989969;28;20080;-79
2022/01/25 13:17:15;;;;;;;21.85;8.50;;;8.30;96.70;;;;;;4988359;28;20534;-79
2022/01/25 13:19:48;;;;;;;20.92;9.15;;;9.70;90.40;;;;;;4987379;28;20025;-77
2022/01/25 13:22:23;;;;;;;19.83;8.32;;;10.70;82.90;;;;;;4988883;28;20458;-78
2022/01/25 13:25:11;;;;;;;19.55;8.48;;;11.60;76.90;;;;;;4988326;28;20033;-78
2022/01/25 13:27:48;;;;;;;20.23;8.18;;;12.00;75.10;;;;;;4971086;28;20557;-79
2022/01/25 13:33:00;;;;;;;17.88;8.45;;;12.40;71.90;;;;;;4991153;28;20037;-78
2022/01/25 13:35:31;;;;;;;18.88;9.48;;;12.60;70.30;;;;;;4974209;28;20022;-77
2022/01/25 13:38:17;;;;;;;19.65;8.52;;;12.70;69.10;;;;;;4992043;28;20141;-80
2022/01/25 13:40:51;;;;;;;23.52;11.18;;;13.10;69.30;;;;;;4973294;28;20120;-79
2022/01/25 13:46:06;;;;;;;21.73;11.48;;;13.70;66.60;;;;;;4990103;28;20352;-78
2022/01/25 13:48:33;;;;;;;26.98;12.02;;;13.60;66.70;;;;;;4955633;28;20057;-79
2022/01/25 13:51:06;;;;;;;22.02;10.65;;;13.20;66.90;;;;;;4989881;28;20022;-79
2022/01/25 13:53:33;;;;;;;24.02;11.15;;;13.10;67.30;;;;;;4992197;28;20026;-79
2022/01/25 13:56:00;;;;;;;20.40;9.85;;;13.00;67.80;;;;;;4994130;28;20027;-78
2022/01/25 13:58:34;;;;;;;23.45;11.68;;;13.20;66.80;;;;;;4976801;28;20231;-78
2022/01/25 14:01:13;;;;;;;26.30;10.68;;;13.70;66.60;;;;;;4975791;28;20026;-80
2022/01/25 14:03:43;;;;;;;26.02;12.20;;;13.80;64.90;;;;;;4974443;28;20030;-80
2022/01/25 14:06:21;;;;;;;19.73;8.68;;;12.90;65.90;;;;;;4973450;28;20134;-79
2022/01/25 14:08:47;;;;;;;21.48;9.73;;;12.70;67.30;;;;;;4992071;28;20030;-79
2022/01/25 14:25:41;;;;;;;17.05;8.10;;;13.10;64.50;;;;;;4993589;28;20097;-78
2022/01/25 14:28:11;;;;;;;25.67;9.88;;;12.50;65.70;;;;;;4992283;28;20406;-78
2022/01/25 14:30:40;;;;;;;23.83;9.02;;;12.80;65.10;;;;;;4973247;28;20018;-78
2022/01/25 14:33:12;;;;;;;16.83;8.85;;;12.60;64.90;;;;;;4990673;28;20034;-78
2022/01/25 14:35:46;;;;;;;20.75;9.40;;;12.20;66.50;;;;;;4974048;28;20034;-77
2022/01/25 14:38:22;;;;;;;25.92;10.63;;;12.40;66.80;;;;;;4975989;28;20113;-77
2022/01/25 14:41:17;;;;;;;22.50;10.00;;;13.00;65.70;;;;;;4992492;28;20359;-77
2022/01/25 14:43:52;;;;;;;26.15;9.98;;;12.60;66.40;;;;;;4974429;28;20245;-77
2022/01/25 14:46:26;;;;;;;22.38;10.63;;;12.20;67.20;;;;;;4974941;28;20045;-80
2022/01/25 14:49:15;;;;;;;24.58;10.85;;;12.30;67.70;;;;;;4972881;28;20045;-78